sensor_id;sensor_type;location;lat;lon;timestamp;pressure;altitude;pressure_sealevel;temperature;humidity
58739;BME280;44512;53.046;18.604;2023-08-31T00:02:14;100735.90;;;16.97;72.57
58739;BME280;44512;53.046;18.604;2023-08-31T00:12:43;100739.49;;;16.86;72.03
58739;BME280;44512;53.046;18.604;2023-08-31T00:23:10;100742.59;;;16.78;71.80
58739;BME280;44512;53.046;18.604;2023-08-31T00:33:39;100746.87;;;16.74;71.83
58739;BME280;44512;53.046;18.604;2023-08-31T00:44:07;100747.34;;;16.71;72.01
58739;BME280;44512;53.046;18.604;2023-08-31T00:54:36;100746.73;;;16.68;72.22
58739;BME280;44512;53.046;18.604;2023-08-31T01:05:13;100757.45;;;16.70;72.41
58739;BME280;44512;53.046;18.604;2023-08-31T01:15:33;100752.80;;;16.71;72.59
58739;BME280;44512;53.046;18.604;2023-08-31T01:26:00;100758.74;;;16.67;72.70
58739;BME280;44512;53.046;18.604;2023-08-31T01:36:32;100762.55;;;16.66;72.66
58739;BME280;44512;53.046;18.604;2023-08-31T01:47:05;100750.43;;;16.62;72.60
58739;BME280;44512;53.046;18.604;2023-08-31T01:57:25;100742.37;;;16.56;72.57
58739;BME280;44512;53.046;18.604;2023-08-31T02:07:54;100745.35;;;16.54;72.64
58739;BME280;44512;53.046;18.604;2023-08-31T02:18:22;100747.73;;;16.51;72.75
58739;BME280;44512;53.046;18.604;2023-08-31T02:28:50;100756.63;;;16.46;72.93
58739;BME280;44512;53.046;18.604;2023-08-31T02:39:19;100759.95;;;16.48;73.07
58739;BME280;44512;53.046;18.604;2023-08-31T02:49:47;100743.54;;;16.48;73.15
58739;BME280;44512;53.046;18.604;2023-08-31T03:00:16;100749.37;;;16.52;73.23
58739;BME280;44512;53.046;18.604;2023-08-31T03:10:44;100751.85;;;16.53;73.25
58739;BME280;44512;53.046;18.604;2023-08-31T03:21:12;100759.95;;;16.48;73.25
58739;BME280;44512;53.046;18.604;2023-08-31T03:31:40;100777.53;;;16.40;73.24
58739;BME280;44512;53.046;18.604;2023-08-31T03:42:09;100791.31;;;16.34;73.16
58739;BME280;44512;53.046;18.604;2023-08-31T03:52:37;100792.61;;;16.31;73.27
58739;BME280;44512;53.046;18.604;2023-08-31T04:03:06;100795.34;;;16.31;73.20
58739;BME280;44512;53.046;18.604;2023-08-31T04:13:34;100801.62;;;16.32;73.16
58739;BME280;44512;53.046;18.604;2023-08-31T04:24:02;100796.78;;;16.34;73.04
58739;BME280;44512;53.046;18.604;2023-08-31T04:34:31;100787.52;;;16.35;72.75
58739;BME280;44512;53.046;18.604;2023-08-31T04:44:59;100786.19;;;16.37;72.67
58739;BME280;44512;53.046;18.604;2023-08-31T04:55:27;100791.08;;;16.35;72.75
58739;BME280;44512;53.046;18.604;2023-08-31T05:05:56;100808.88;;;16.38;72.82
58739;BME280;44512;53.046;18.604;2023-08-31T05:16:24;100819.59;;;16.39;73.01
58739;BME280;44512;53.046;18.604;2023-08-31T05:26:52;100817.07;;;16.38;73.25
58739;BME280;44512;53.046;18.604;2023-08-31T05:37:21;100822.78;;;16.36;73.38
58739;BME280;44512;53.046;18.604;2023-08-31T05:47:49;100830.27;;;16.41;73.52
58739;BME280;44512;53.046;18.604;2023-08-31T05:58:17;100834.20;;;16.45;73.61
58739;BME280;44512;53.046;18.604;2023-08-31T06:08:47;100842.27;;;16.52;73.79
58739;BME280;44512;53.046;18.604;2023-08-31T06:19:14;100831.00;;;16.60;74.12
58739;BME280;44512;53.046;18.604;2023-08-31T06:29:43;100840.73;;;16.67;73.90
58739;BME280;44512;53.046;18.604;2023-08-31T06:40:12;100831.60;;;16.74;73.66
58739;BME280;44512;53.046;18.604;2023-08-31T06:50:39;100842.20;;;16.82;73.44
58739;BME280;44512;53.046;18.604;2023-08-31T07:01:08;100850.87;;;16.90;73.06
58739;BME280;44512;53.046;18.604;2023-08-31T07:11:36;100846.09;;;16.98;72.38
58739;BME280;44512;53.046;18.604;2023-08-31T07:22:04;100844.66;;;17.07;71.84
58739;BME280;44512;53.046;18.604;2023-08-31T07:32:33;100837.26;;;17.19;71.37
58739;BME280;44512;53.046;18.604;2023-08-31T07:43:01;100862.91;;;17.30;70.90
58739;BME280;44512;53.046;18.604;2023-08-31T07:53:29;100867.30;;;17.42;70.82
58739;BME280;44512;53.046;18.604;2023-08-31T08:03:58;100877.70;;;17.57;70.20
58739;BME280;44512;53.046;18.604;2023-08-31T08:14:26;100876.59;;;17.70;69.87
58739;BME280;44512;53.046;18.604;2023-08-31T08:24:54;100879.92;;;17.84;69.54
58739;BME280;44512;53.046;18.604;2023-08-31T08:35:23;100884.70;;;18.05;70.03
58739;BME280;44512;53.046;18.604;2023-08-31T08:45:53;100890.27;;;18.27;67.80
58739;BME280;44512;53.046;18.604;2023-08-31T08:56:19;100892.55;;;18.47;65.43
58739;BME280;44512;53.046;18.604;2023-08-31T09:06:50;100891.71;;;18.63;65.51
58739;BME280;44512;53.046;18.604;2023-08-31T09:17:16;100895.89;;;18.83;64.26
58739;BME280;44512;53.046;18.604;2023-08-31T09:27:44;100881.32;;;18.99;64.01
58739;BME280;44512;53.046;18.604;2023-08-31T09:38:14;100893.83;;;19.12;63.01
58739;BME280;44512;53.046;18.604;2023-08-31T09:48:42;100900.30;;;19.22;62.97
58739;BME280;44512;53.046;18.604;2023-08-31T09:59:14;100899.30;;;19.29;63.81
58739;BME280;44512;53.046;18.604;2023-08-31T10:09:38;100892.92;;;19.45;62.96
58739;BME280;44512;53.046;18.604;2023-08-31T10:20:11;100884.55;;;19.57;61.97
58739;BME280;44512;53.046;18.604;2023-08-31T10:30:34;100887.02;;;19.58;62.59
58739;BME280;44512;53.046;18.604;2023-08-31T10:57:03;100876.05;;;19.58;63.88
58739;BME280;44512;53.046;18.604;2023-08-31T11:07:26;100894.35;;;19.69;62.16
58739;BME280;44512;53.046;18.604;2023-08-31T11:17:53;100915.85;;;19.77;60.98
58739;BME280;44512;53.046;18.604;2023-08-31T11:28:20;100923.47;;;19.70;60.50
58739;BME280;44512;53.046;18.604;2023-08-31T11:38:49;100955.73;;;19.41;61.84
58739;BME280;44512;53.046;18.604;2023-08-31T11:49:18;100940.24;;;19.13;64.44
58739;BME280;44512;53.046;18.604;2023-08-31T11:59:45;100967.36;;;18.93;65.57
58739;BME280;44512;53.046;18.604;2023-08-31T12:10:14;100979.17;;;18.77;67.06
58739;BME280;44512;53.046;18.604;2023-08-31T12:20:51;100956.38;;;18.76;67.76
58739;BME280;44512;53.046;18.604;2023-08-31T12:31:10;100951.88;;;18.70;67.20
58739;BME280;44512;53.046;18.604;2023-08-31T12:41:39;100955.85;;;18.62;67.81
58739;BME280;44512;53.046;18.604;2023-08-31T12:52:07;100983.75;;;18.59;68.26
58739;BME280;44512;53.046;18.604;2023-08-31T13:02:35;100978.87;;;18.61;67.82
58739;BME280;44512;53.046;18.604;2023-08-31T13:13:04;100971.70;;;18.60;66.08
58739;BME280;44512;53.046;18.604;2023-08-31T13:23:32;100984.44;;;18.66;65.28
58739;BME280;44512;53.046;18.604;2023-08-31T13:34:00;101003.02;;;18.93;64.13
58739;BME280;44512;53.046;18.604;2023-08-31T13:44:32;100994.59;;;19.16;61.79
58739;BME280;44512;53.046;18.604;2023-08-31T13:54:57;101017.01;;;19.47;59.16
58739;BME280;44512;53.046;18.604;2023-08-31T14:05:25;101023.48;;;19.74;57.68
58739;BME280;44512;53.046;18.604;2023-08-31T14:15:54;101034.48;;;19.74;56.52
58739;BME280;44512;53.046;18.604;2023-08-31T14:26:23;101046.43;;;19.85;56.64
58739;BME280;44512;53.046;18.604;2023-08-31T14:36:51;101054.92;;;20.27;56.34
58739;BME280;44512;53.046;18.604;2023-08-31T14:47:19;101056.12;;;20.86;55.78
58739;BME280;44512;53.046;18.604;2023-08-31T14:57:47;101062.91;;;21.05;54.81
58739;BME280;44512;53.046;18.604;2023-08-31T15:08:16;101055.02;;;21.19;54.39
58739;BME280;44512;53.046;18.604;2023-08-31T15:18:44;101063.91;;;20.94;53.54
58739;BME280;44512;53.046;18.604;2023-08-31T15:29:12;101089.96;;;20.59;52.38
58739;BME280;44512;53.046;18.604;2023-08-31T15:39:40;101097.23;;;20.70;51.02
58739;BME280;44512;53.046;18.604;2023-08-31T15:50:09;101099.86;;;20.60;50.26
58739;BME280;44512;53.046;18.604;2023-08-31T16:00:37;101111.75;;;20.93;49.04
58739;BME280;44512;53.046;18.604;2023-08-31T16:11:05;101127.18;;;21.21;46.90
58739;BME280;44512;53.046;18.604;2023-08-31T16:21:34;101150.27;;;20.93;45.62
58739;BME280;44512;53.046;18.604;2023-08-31T16:32:02;101161.96;;;20.56;45.54
58739;BME280;44512;53.046;18.604;2023-08-31T16:42:30;101145.57;;;20.22;46.22
58739;BME280;44512;53.046;18.604;2023-08-31T16:52:59;101134.63;;;20.06;46.94
58739;BME280;44512;53.046;18.604;2023-08-31T17:03:29;101140.47;;;19.92;47.56
58739;BME280;44512;53.046;18.604;2023-08-31T17:13:55;101155.96;;;19.82;47.96
58739;BME280;44512;53.046;18.604;2023-08-31T17:24:24;101163.48;;;19.69;48.56
58739;BME280;44512;53.046;18.604;2023-08-31T17:34:52;101156.84;;;19.53;49.17
58739;BME280;44512;53.046;18.604;2023-08-31T17:45:20;101159.41;;;19.43;49.94
58739;BME280;44512;53.046;18.604;2023-08-31T17:55:49;101168.82;;;19.31;50.51
58739;BME280;44512;53.046;18.604;2023-08-31T18:06:17;101175.21;;;19.19;51.19
58739;BME280;44512;53.046;18.604;2023-08-31T18:16:45;101185.30;;;19.02;51.86
58739;BME280;44512;53.046;18.604;2023-08-31T18:27:14;101192.40;;;18.86;52.51
58739;BME280;44512;53.046;18.604;2023-08-31T18:37:42;101201.18;;;18.71;53.27
58739;BME280;44512;53.046;18.604;2023-08-31T18:48:11;101197.11;;;18.62;53.67
58739;BME280;44512;53.046;18.604;2023-08-31T18:58:39;101198.80;;;18.52;54.35
58739;BME280;44512;53.046;18.604;2023-08-31T19:09:07;101200.96;;;18.38;54.75
58739;BME280;44512;53.046;18.604;2023-08-31T19:19:35;101202.27;;;18.23;55.33
58739;BME280;44512;53.046;18.604;2023-08-31T19:30:05;101205.49;;;18.09;56.01
58739;BME280;44512;53.046;18.604;2023-08-31T19:40:32;101209.69;;;18.00;56.46
58739;BME280;44512;53.046;18.604;2023-08-31T19:51:05;101216.84;;;17.89;56.77
58739;BME280;44512;53.046;18.604;2023-08-31T20:01:29;101232.77;;;17.80;56.93
58739;BME280;44512;53.046;18.604;2023-08-31T20:11:57;101228.91;;;17.69;57.15
58739;BME280;44512;53.046;18.604;2023-08-31T20:22:26;101232.80;;;17.62;57.45
58739;BME280;44512;53.046;18.604;2023-08-31T20:32:54;101225.20;;;17.52;57.75
58739;BME280;44512;53.046;18.604;2023-08-31T20:43:25;101226.94;;;17.47;57.94
58739;BME280;44512;53.046;18.604;2023-08-31T20:53:51;101235.12;;;17.35;58.30
58739;BME280;44512;53.046;18.604;2023-08-31T21:04:19;101245.48;;;17.33;58.45
58739;BME280;44512;53.046;18.604;2023-08-31T21:14:47;101244.71;;;17.26;58.58
58739;BME280;44512;53.046;18.604;2023-08-31T21:25:16;101245.64;;;17.19;58.38
58739;BME280;44512;53.046;18.604;2023-08-31T21:35:44;101248.23;;;17.14;58.12
58739;BME280;44512;53.046;18.604;2023-08-31T21:46:12;101264.51;;;17.09;57.87
58739;BME280;44512;53.046;18.604;2023-08-31T21:56:41;101259.97;;;17.03;57.81
58739;BME280;44512;53.046;18.604;2023-08-31T22:07:09;101263.24;;;16.93;57.95
58739;BME280;44512;53.046;18.604;2023-08-31T22:17:38;101271.05;;;16.90;57.80
58739;BME280;44512;53.046;18.604;2023-08-31T22:28:06;101279.59;;;16.82;57.73
58739;BME280;44512;53.046;18.604;2023-08-31T22:38:34;101275.05;;;16.69;57.90
58739;BME280;44512;53.046;18.604;2023-08-31T22:49:03;101265.86;;;16.63;57.95
58739;BME280;44512;53.046;18.604;2023-08-31T22:59:31;101260.73;;;16.55;58.20
58739;BME280;44512;53.046;18.604;2023-08-31T23:09:59;101264.97;;;16.51;58.37
58739;BME280;44512;53.046;18.604;2023-08-31T23:20:28;101261.91;;;16.41;58.71
58739;BME280;44512;53.046;18.604;2023-08-31T23:30:56;101261.16;;;16.34;59.07
58739;BME280;44512;53.046;18.604;2023-08-31T23:41:24;101264.09;;;16.32;59.38
58739;BME280;44512;53.046;18.604;2023-08-31T23:51:53;101275.53;;;16.23;59.90
